Time;durP1;ratioP1;P1;durP2;ratioP2;P2;SDS_P1;SDS_P2;PMS_P1;PMS_P2;Temp;Humidity;BMP_temperature;BMP_pressure;BME280_temperature;BME280_humidity;BME280_pressure;Samples;Min_cycle;Max_cycle;Signal;HPM_P1;HPM_P2
2021/11/16 00:00:00;;;;;;;;;;;;;;;;;;345869;28;814;-80
2021/11/16 00:00:11;;;;;;;;;;;;;;;;;;345795;28;976;-81
2021/11/16 00:00:22;;;;;;;;;;;;;;;;;;345830;28;854;-81
2021/11/16 00:00:51;;;;;;;;;;;;;;;;;;345863;28;692;-81
2021/11/16 00:01:01;;;;;;;;;;;;;;;;;;346318;28;838;-81
2021/11/16 00:01:12;;;;;;;;;;;;;;;;;;347247;28;936;-82
2021/11/16 00:01:26;;;;;;;;;;;;;;;;;;347264;28;1052;-80
2021/11/16 00:01:38;;;;;;;;;;;;;;;;;;347240;28;1064;-81
2021/11/16 00:01:48;;;;;;;;;;;;;;;;;;347355;28;929;-81
2021/11/16 00:01:59;;;;;;;;;;;;;;;;;;347333;28;794;-81
2021/11/16 00:02:09;;;;;;;;;;;;;;;;;;347305;28;802;-80
2021/11/16 00:02:19;;;;;;;;;;;;;;;;;;347374;28;506;-80
2021/11/16 00:02:30;;;;;;;;;;;;;;;;;;344485;28;1001;-80
2021/11/16 00:02:40;;;;;;;;;;;;;;;;;;344460;28;1444;-81
2021/11/16 00:02:51;;;;;;;;;;;;;;;;;;344415;28;952;-80
2021/11/16 00:03:01;;;;;;;;;;;;;;;;;;344465;28;740;-80
2021/11/16 00:03:12;;;;;;;;;;;;;;;;;;344435;28;886;-81
2021/11/16 00:03:22;;;;;;;;;;;;;;;;;;344399;28;799;-81
2021/11/16 00:03:33;;;;;;;;;;;;;;;;;;344520;28;926;-79
2021/11/16 00:03:43;;;;;;;;;;;;;;;;;;344498;28;892;-80
2021/11/16 00:04:20;;;;;;;;;;;;;;;;;;344517;28;834;-80
2021/11/16 00:04:30;;;;;;;;;;;;;;;;;;344490;28;845;-81
2021/11/16 00:04:41;;;;;;;;;;;;;;;;;;345522;28;1130;-80
2021/11/16 00:04:51;;;;;;;;;;;;;;;;;;345861;28;972;-84
2021/11/16 00:05:03;;;;;;;;;;;;;;;;;;347207;28;874;-80
2021/11/16 00:05:32;;;;;;;;;;;;;;;;;;347238;28;595;-82
2021/11/16 00:05:42;;;;;;;;;;;;;;;;;;347256;28;978;-80
2021/11/16 00:05:53;;;;;;;;;;;;;;;;;;347283;28;802;-81
2021/11/16 00:06:03;;;;;;;;;;;;;;;;;;347245;28;910;-81
2021/11/16 00:06:14;;;;;;;;;;;;;;;;;;347241;28;917;-81
2021/11/16 00:06:29;;;;;;;;;;;;;;;;;;347280;28;806;-80
2021/11/16 00:06:39;;;;;;;;;;;;;;;;;;347250;28;1977;-82
2021/11/16 00:06:53;;;;;;;;;;;;;;;;;;345776;28;837;-84
2021/11/16 00:07:05;;;;;;;;;;;;;;;;;;344358;28;1176;-80
2021/11/16 00:07:18;;;;;;;;;;;;;;;;;;344396;28;1262;-82
2021/11/16 00:07:44;;;;;;;;;;;;;;;;;;344519;28;799;-80
2021/11/16 00:07:56;;;;;;;;;;;;;;;;;;341675;29;1070;-82
2021/11/16 00:08:07;;;;;;;;;;;;;;;;;;341889;29;941;-80
2021/11/16 00:08:18;;;;;;;;;;;;;;;;;;340373;29;1452;-82
2021/11/16 00:08:28;;;;;;;;;;;;;;;;;;341487;29;959;-82
2021/11/16 00:09:50;;;;;;;;;;;;;;;;;;338604;28;950;-80
2021/11/16 00:10:02;;;;;;;;;;;;;;;;;;342993;28;1296;-81
2021/11/16 00:10:12;;;;;;;;;;;;;;;;;;343607;28;1177;-82
2021/11/16 00:10:23;;;;;;;;;;;;;;;;;;345874;28;884;-81
2021/11/16 00:10:34;;;;;;;;;;;;;;;;;;345827;28;1011;-82
2021/11/16 00:10:45;;;;;;;;;;;;;;;;;;345887;28;996;-82
2021/11/16 00:10:55;;;;;;;;;;;;;;;;;;344530;28;1033;-83
2021/11/16 00:11:06;;;;;;;;;;;;;;;;;;344474;28;819;-81
2021/11/16 00:11:19;;;;;;;;;;;;;;;;;;344462;28;993;-86
2021/11/16 00:11:30;;;;;;;;;;;;;;;;;;344501;28;845;-82
2021/11/16 00:11:40;;;;;;;;;;;;;;;;;;344472;28;529;-85
2021/11/16 00:11:51;;;;;;;;;;;;;;;;;;344429;28;977;-83
2021/11/16 00:12:01;;;;;;;;;;;;;;;;;;345854;28;941;-83
2021/11/16 00:12:12;;;;;;;;;;;;;;;;;;345735;28;1000;-84
2021/11/16 00:12:22;;;;;;;;;;;;;;;;;;345764;28;909;-82
2021/11/16 00:12:33;;;;;;;;;;;;;;;;;;345834;28;819;-82
2021/11/16 00:12:44;;;;;;;;;;;;;;;;;;345756;28;1493;-81
2021/11/16 00:12:57;;;;;;;;;;;;;;;;;;345778;28;952;-83
2021/11/16 00:13:11;;;;;;;;;;;;;;;;;;345868;28;866;-81
2021/11/16 00:13:22;;;;;;;;;;;;;;;;;;345762;28;514;-83
2021/11/16 00:13:32;;;;;;;;;;;;;;;;;;345817;28;788;-83
2021/11/16 00:13:43;;;;;;;;;;;;;;;;;;345829;28;977;-81
2021/11/16 00:13:53;;;;;;;;;;;;;;;;;;344594;28;1383;-82
2021/11/16 00:14:04;;;;;;;;;;;;;;;;;;345717;28;925;-81
2021/11/16 00:14:16;;;;;;;;;;;;;;;;;;344388;28;976;-81
2021/11/16 00:14:53;;;;;;;;;;;;;;;;;;344384;28;1202;-81
2021/11/16 00:15:04;;;;;;;;;;;;;;;;;;344305;28;916;-83
2021/11/16 00:15:14;;;;;;;;;;;;;;;;;;344383;28;1220;-81
2021/11/16 00:15:25;;;;;;;;;;;;;;;;;;344408;28;1384;-80
2021/11/16 00:15:35;;;;;;;;;;;;;;;;;;344371;28;1169;-80
2021/11/16 00:15:46;;;;;;;;;;;;;;;;;;343174;28;918;-80
2021/11/16 00:15:56;;;;;;;;;;;;;;;;;;343117;28;807;-80
2021/11/16 00:16:09;;;;;;;;;;;;;;;;;;343568;28;965;-81
2021/11/16 00:16:20;;;;;;;;;;;;;;;;;;343103;28;922;-80
2021/11/16 00:16:30;;;;;;;;;;;;;;;;;;343182;28;878;-81
2021/11/16 00:16:42;;;;;;;;;;;;;;;;;;342898;28;1599;-80
2021/11/16 00:16:52;;;;;;;;;;;;;;;;;;343152;28;969;-80
2021/11/16 00:17:03;;;;;;;;;;;;;;;;;;343083;28;934;-81
2021/11/16 00:17:13;;;;;;;;;;;;;;;;;;343178;28;902;-81
2021/11/16 00:17:24;;;;;;;;;;;;;;;;;;343152;28;779;-80
2021/11/16 00:17:34;;;;;;;;;;;;;;;;;;344199;28;957;-81
2021/11/16 00:17:44;;;;;;;;;;;;;;;;;;345580;28;826;-79
2021/11/16 00:17:55;;;;;;;;;;;;;;;;;;345792;28;937;-80
2021/11/16 00:18:06;;;;;;;;;;;;;;;;;;344444;28;957;-79
2021/11/16 00:18:18;;;;;;;;;;;;;;;;;;344488;28;984;-81
2021/11/16 00:18:30;;;;;;;;;;;;;;;;;;344474;28;834;-84
2021/11/16 00:18:41;;;;;;;;;;;;;;;;;;344407;28;1024;-80
2021/11/16 00:18:58;;;;;;;;;;;;;;;;;;345519;28;853;-85
2021/11/16 00:19:12;;;;;;;;;;;;;;;;;;345833;28;870;-81
2021/11/16 00:19:38;;;;;;;;;;;;;;;;;;345745;28;806;-80
2021/11/16 00:19:50;;;;;;;;;;;;;;;;;;345837;28;829;-82
2021/11/16 00:20:03;;;;;;;;;;;;;;;;;;346298;28;1024;-80
2021/11/16 00:20:15;;;;;;;;;;;;;;;;;;345738;28;1027;-81
2021/11/16 00:20:25;;;;;;;;;;;;;;;;;;345827;28;818;-80
2021/11/16 00:20:42;;;;;;;;;;;;;;;;;;345808;28;932;-82
2021/11/16 00:20:53;;;;;;;;;;;;;;;;;;345744;28;945;-81
2021/11/16 00:21:06;;;;;;;;;;;;;;;;;;345729;28;830;-82
2021/11/16 00:21:19;;;;;;;;;;;;;;;;;;345829;28;944;-87
2021/11/16 00:21:30;;;;;;;;;;;;;;;;;;345813;28;1051;-81
2021/11/16 00:21:42;;;;;;;;;;;;;;;;;;345850;28;831;-80
2021/11/16 00:21:56;;;;;;;;;;;;;;;;;;345813;28;1016;-85
2021/11/16 00:22:08;;;;;;;;;;;;;;;;;;345822;28;853;-80
2021/11/16 00:22:19;;;;;;;;;;;;;;;;;;346120;28;838;-81
2021/11/16 00:22:29;;;;;;;;;;;;;;;;;;347306;28;995;-83
2021/11/16 00:23:06;;;;;;;;;;;;;;;;;;347204;28;889;-86
2021/11/16 00:23:18;;;;;;;;;;;;;;;;;;347157;28;1068;-86
2021/11/16 00:23:36;;;;;;;;;;;;;;;;;;345710;28;957;-80
2021/11/16 00:23:52;;;;;;;;;;;;;;;;;;345726;28;1012;-82
2021/11/16 00:24:09;;;;;;;;;;;;;;;;;;345836;28;866;-82
2021/11/16 00:24:25;;;;;;;;;;;;;;;;;;345750;28;822;-84
2021/11/16 00:24:38;;;;;;;;;;;;;;;;;;345811;28;854;-84
2021/11/16 00:25:24;;;;;;;;;;;;;;;;;;345876;28;865;-83
2021/11/16 00:25:36;;;;;;;;;;;;;;;;;;345764;28;949;-82
2021/11/16 00:25:49;;;;;;;;;;;;;;;;;;345806;28;822;-86
2021/11/16 00:26:01;;;;;;;;;;;;;;;;;;344331;28;1463;-80
2021/11/16 00:26:12;;;;;;;;;;;;;;;;;;344508;28;822;-82
2021/11/16 00:26:24;;;;;;;;;;;;;;;;;;342980;28;1449;-80
2021/11/16 00:26:34;;;;;;;;;;;;;;;;;;343003;28;1318;-80
2021/11/16 00:26:45;;;;;;;;;;;;;;;;;;341916;28;1898;-81
2021/11/16 00:26:55;;;;;;;;;;;;;;;;;;341847;29;818;-81
2021/11/16 00:27:07;;;;;;;;;;;;;;;;;;341763;29;810;-79
2021/11/16 00:27:17;;;;;;;;;;;;;;;;;;341805;29;957;-80
2021/11/16 00:27:27;;;;;;;;;;;;;;;;;;342060;28;918;-82
2021/11/16 00:27:38;;;;;;;;;;;;;;;;;;343096;28;842;-84
2021/11/16 00:27:48;;;;;;;;;;;;;;;;;;343005;28;937;-82
2021/11/16 00:27:59;;;;;;;;;;;;;;;;;;343090;28;1072;-82
2021/11/16 00:28:09;;;;;;;;;;;;;;;;;;341763;29;913;-83
2021/11/16 00:28:20;;;;;;;;;;;;;;;;;;342559;28;929;-82
2021/11/16 00:28:31;;;;;;;;;;;;;;;;;;341797;29;1009;-82
2021/11/16 00:28:41;;;;;;;;;;;;;;;;;;341793;29;858;-81
2021/11/16 00:28:52;;;;;;;;;;;;;;;;;;341794;29;969;-81
2021/11/16 00:29:02;;;;;;;;;;;;;;;;;;341758;29;961;-80
2021/11/16 00:29:13;;;;;;;;;;;;;;;;;;343098;28;1004;-83
2021/11/16 00:29:23;;;;;;;;;;;;;;;;;;343018;28;2046;-80
2021/11/16 00:29:34;;;;;;;;;;;;;;;;;;343006;28;909;-82
2021/11/16 00:30:11;;;;;;;;;;;;;;;;;;344466;28;957;-80
2021/11/16 00:30:21;;;;;;;;;;;;;;;;;;344464;28;830;-80
2021/11/16 00:30:32;;;;;;;;;;;;;;;;;;342960;28;1306;-81
2021/11/16 00:30:42;;;;;;;;;;;;;;;;;;343187;28;1005;-83
2021/11/16 00:30:53;;;;;;;;;;;;;;;;;;343049;28;1004;-81
2021/11/16 00:31:31;;;;;;;;;;;;;;;;;;344426;28;929;-81
2021/11/16 00:31:42;;;;;;;;;;;;;;;;;;344456;28;1032;-83
2021/11/16 00:31:55;;;;;;;;;;;;;;;;;;344393;28;961;-83
2021/11/16 00:32:06;;;;;;;;;;;;;;;;;;344410;28;862;-81
2021/11/16 00:32:16;;;;;;;;;;;;;;;;;;344301;28;901;-82
2021/11/16 00:32:30;;;;;;;;;;;;;;;;;;344002;28;941;-84
2021/11/16 00:32:40;;;;;;;;;;;;;;;;;;344468;28;816;-80
2021/11/16 00:32:51;;;;;;;;;;;;;;;;;;344396;28;727;-80
2021/11/16 00:33:01;;;;;;;;;;;;;;;;;;345416;28;728;-80
2021/11/16 00:33:20;;;;;;;;;;;;;;;;;;345816;28;964;-83
2021/11/16 00:33:34;;;;;;;;;;;;;;;;;;345741;28;953;-82
2021/11/16 00:33:44;;;;;;;;;;;;;;;;;;345794;28;940;-80
2021/11/16 00:33:54;;;;;;;;;;;;;;;;;;345669;28;802;-82
2021/11/16 00:34:11;;;;;;;;;;;;;;;;;;345757;28;937;-80
2021/11/16 00:34:47;;;;;;;;;;;;;;;;;;346449;28;957;-81
2021/11/16 00:34:57;;;;;;;;;;;;;;;;;;347215;28;1048;-83
2021/11/16 00:35:08;;;;;;;;;;;;;;;;;;347209;28;932;-81
2021/11/16 00:35:18;;;;;;;;;;;;;;;;;;347304;28;842;-81
2021/11/16 00:35:29;;;;;;;;;;;;;;;;;;347225;28;933;-81
2021/11/16 00:35:40;;;;;;;;;;;;;;;;;;345838;28;811;-82
2021/11/16 00:35:50;;;;;;;;;;;;;;;;;;345792;28;913;-80
2021/11/16 00:36:01;;;;;;;;;;;;;;;;;;345810;28;1087;-82
2021/11/16 00:36:11;;;;;;;;;;;;;;;;;;345776;28;861;-81
2021/11/16 00:36:21;;;;;;;;;;;;;;;;;;345787;28;928;-81
2021/11/16 00:36:32;;;;;;;;;;;;;;;;;;344383;28;1306;-80
2021/11/16 00:37:01;;;;;;;;;;;;;;;;;;344309;28;857;-80
2021/11/16 00:37:12;;;;;;;;;;;;;;;;;;344429;28;933;-86
2021/11/16 00:37:26;;;;;;;;;;;;;;;;;;344494;28;794;-82
2021/11/16 00:37:37;;;;;;;;;;;;;;;;;;344486;28;846;-81
2021/11/16 00:37:48;;;;;;;;;;;;;;;;;;344472;28;937;-80
2021/11/16 00:37:58;;;;;;;;;;;;;;;;;;344412;28;952;-80
2021/11/16 00:38:11;;;;;;;;;;;;;;;;;;345225;28;882;-80
2021/11/16 00:38:21;;;;;;;;;;;;;;;;;;345779;28;825;-84
2021/11/16 00:38:41;;;;;;;;;;;;;;;;;;344543;28;1158;-82
2021/11/16 00:38:52;;;;;;;;;;;;;;;;;;344438;28;775;-82
2021/11/16 00:39:02;;;;;;;;;;;;;;;;;;344374;28;1016;-82
2021/11/16 00:39:13;;;;;;;;;;;;;;;;;;344437;28;941;-83
2021/11/16 00:39:23;;;;;;;;;;;;;;;;;;344421;28;826;-83
2021/11/16 00:39:34;;;;;;;;;;;;;;;;;;343023;28;1157;-81
2021/11/16 00:39:44;;;;;;;;;;;;;;;;;;341707;29;827;-81
2021/11/16 00:39:56;;;;;;;;;;;;;;;;;;341637;29;1017;-81
2021/11/16 00:40:08;;;;;;;;;;;;;;;;;;341792;29;834;-81
2021/11/16 00:40:20;;;;;;;;;;;;;;;;;;342627;28;1084;-80
2021/11/16 00:40:30;;;;;;;;;;;;;;;;;;344060;28;925;-83
2021/11/16 00:40:41;;;;;;;;;;;;;;;;;;344413;28;873;-82
2021/11/16 00:41:07;;;;;;;;;;;;;;;;;;343046;28;1135;-84
2021/11/16 00:41:18;;;;;;;;;;;;;;;;;;343092;28;909;-80
2021/11/16 00:41:54;;;;;;;;;;;;;;;;;;345775;28;1024;-87
2021/11/16 00:42:04;;;;;;;;;;;;;;;;;;345720;28;985;-83
2021/11/16 00:42:18;;;;;;;;;;;;;;;;;;345827;28;937;-83
2021/11/16 00:42:28;;;;;;;;;;;;;;;;;;345741;28;1012;-80
2021/11/16 00:43:34;;;;;;;;;;;;;;;;;;347223;28;904;-81
2021/11/16 00:43:44;;;;;;;;;;;;;;;;;;347236;28;1008;-81
2021/11/16 00:44:10;;;;;;;;;;;;;;;;;;347259;28;857;-80
2021/11/16 00:44:35;;;;;;;;;;;;;;;;;;347214;28;802;-81
2021/11/16 00:44:46;;;;;;;;;;;;;;;;;;347174;28;992;-80
2021/11/16 00:44:56;;;;;;;;;;;;;;;;;;347129;28;818;-80
2021/11/16 00:45:07;;;;;;;;;;;;;;;;;;347216;28;842;-80
2021/11/16 00:45:18;;;;;;;;;;;;;;;;;;347265;28;913;-80
2021/11/16 00:45:28;;;;;;;;;;;;;;;;;;347196;28;857;-80
2021/11/16 00:45:40;;;;;;;;;;;;;;;;;;347270;28;869;-84
2021/11/16 00:46:17;;;;;;;;;;;;;;;;;;345763;28;996;-81
2021/11/16 00:46:27;;;;;;;;;;;;;;;;;;345773;28;858;-79
2021/11/16 00:46:38;;;;;;;;;;;;;;;;;;345774;28;972;-80
2021/11/16 00:46:48;;;;;;;;;;;;;;;;;;345753;28;1890;-80
2021/11/16 00:46:58;;;;;;;;;;;;;;;;;;345840;28;985;-81
2021/11/16 00:47:09;;;;;;;;;;;;;;;;;;345805;28;867;-80
2021/11/16 00:47:20;;;;;;;;;;;;;;;;;;345765;28;896;-82
2021/11/16 00:47:30;;;;;;;;;;;;;;;;;;345776;28;897;-82
2021/11/16 00:47:42;;;;;;;;;;;;;;;;;;345755;28;1000;-83
2021/11/16 00:47:52;;;;;;;;;;;;;;;;;;347197;28;920;-84
2021/11/16 00:48:03;;;;;;;;;;;;;;;;;;347188;28;818;-81
2021/11/16 00:48:15;;;;;;;;;;;;;;;;;;347206;28;1048;-82
2021/11/16 00:48:26;;;;;;;;;;;;;;;;;;347250;28;1000;-80
2021/11/16 00:48:42;;;;;;;;;;;;;;;;;;347248;28;1044;-79
2021/11/16 00:48:53;;;;;;;;;;;;;;;;;;347221;28;1024;-81
2021/11/16 00:49:03;;;;;;;;;;;;;;;;;;347178;28;988;-80
2021/11/16 00:49:13;;;;;;;;;;;;;;;;;;347257;28;920;-82
2021/11/16 00:49:24;;;;;;;;;;;;;;;;;;347254;28;964;-80
2021/11/16 00:50:16;;;;;;;;;;;;;;;;;;347023;28;889;-81
2021/11/16 00:50:41;;;;;;;;;;;;;;;;;;345716;28;949;-80
2021/11/16 00:50:56;;;;;;;;;;;;;;;;;;345750;28;898;-81
2021/11/16 00:51:07;;;;;;;;;;;;;;;;;;345766;28;873;-86
2021/11/16 00:51:18;;;;;;;;;;;;;;;;;;345808;28;866;-81
2021/11/16 00:51:28;;;;;;;;;;;;;;;;;;345699;28;973;-85
2021/11/16 00:51:38;;;;;;;;;;;;;;;;;;345770;28;826;-83
2021/11/16 00:51:49;;;;;;;;;;;;;;;;;;345726;28;809;-85
2021/11/16 00:51:59;;;;;;;;;;;;;;;;;;345826;28;866;-83
2021/11/16 00:52:09;;;;;;;;;;;;;;;;;;345714;28;822;-84
2021/11/16 00:52:20;;;;;;;;;;;;;;;;;;346186;28;921;-81
2021/11/16 00:52:31;;;;;;;;;;;;;;;;;;347224;28;1015;-81
2021/11/16 00:52:43;;;;;;;;;;;;;;;;;;347146;28;921;-82
2021/11/16 00:52:53;;;;;;;;;;;;;;;;;;347227;28;1104;-81
2021/11/16 00:53:04;;;;;;;;;;;;;;;;;;347270;28;814;-84
2021/11/16 00:53:15;;;;;;;;;;;;;;;;;;347223;28;964;-82
2021/11/16 00:53:29;;;;;;;;;;;;;;;;;;347275;28;811;-81
2021/11/16 00:53:40;;;;;;;;;;;;;;;;;;345734;28;1445;-80
2021/11/16 00:53:51;;;;;;;;;;;;;;;;;;345721;28;899;-85
2021/11/16 00:54:04;;;;;;;;;;;;;;;;;;345773;28;826;-84
2021/11/16 00:54:14;;;;;;;;;;;;;;;;;;344377;28;818;-86
2021/11/16 00:54:24;;;;;;;;;;;;;;;;;;344369;28;857;-83
2021/11/16 00:54:35;;;;;;;;;;;;;;;;;;344353;28;791;-81
2021/11/16 00:54:45;;;;;;;;;;;;;;;;;;344438;28;869;-83
2021/11/16 00:54:56;;;;;;;;;;;;;;;;;;344423;28;843;-84
2021/11/16 00:55:06;;;;;;;;;;;;;;;;;;344325;28;850;-83
2021/11/16 00:55:17;;;;;;;;;;;;;;;;;;344322;28;961;-83
2021/11/16 00:55:27;;;;;;;;;;;;;;;;;;344404;28;913;-86
2021/11/16 00:55:44;;;;;;;;;;;;;;;;;;345403;28;882;-84
2021/11/16 00:55:55;;;;;;;;;;;;;;;;;;345782;28;881;-80
2021/11/16 00:56:08;;;;;;;;;;;;;;;;;;345824;28;961;-82
2021/11/16 00:56:18;;;;;;;;;;;;;;;;;;347225;28;949;-81
2021/11/16 00:56:55;;;;;;;;;;;;;;;;;;347204;28;957;-81
2021/11/16 00:57:05;;;;;;;;;;;;;;;;;;345738;28;819;-80
2021/11/16 00:57:16;;;;;;;;;;;;;;;;;;345744;28;981;-81
2021/11/16 00:57:26;;;;;;;;;;;;;;;;;;345656;28;1009;-79
2021/11/16 00:57:37;;;;;;;;;;;;;;;;;;345808;28;711;-83
2021/11/16 00:57:47;;;;;;;;;;;;;;;;;;345833;28;826;-80
2021/11/16 00:58:52;;;;;;;;;;;;;;;;;;345775;28;1199;-85
2021/11/16 00:59:03;;;;;;;;;;;;;;;;;;346728;28;889;-80
2021/11/16 00:59:39;;;;;;;;;;;;;;;;;;347164;28;932;-81
2021/11/16 00:59:50;;;;;;;;;;;;;;;;;;347187;28;981;-84
2021/11/16 01:00:00;;;;;;;;;;;;;;;;;;347259;28;833;-81
2021/11/16 01:00:12;;;;;;;;;;;;;;;;;;347163;28;1008;-82
2021/11/16 01:00:23;;;;;;;;;;;;;;;;;;347099;28;636;-86
2021/11/16 01:00:33;;;;;;;;;;;;;;;;;;347269;28;795;-81
2021/11/16 01:00:44;;;;;;;;;;;;;;;;;;347203;28;986;-80
2021/11/16 01:00:55;;;;;;;;;;;;;;;;;;347236;28;803;-80
2021/11/16 01:01:05;;;;;;;;;;;;;;;;;;347117;28;976;-81
2021/11/16 01:01:15;;;;;;;;;;;;;;;;;;347245;28;814;-80
2021/11/16 01:01:26;;;;;;;;;;;;;;;;;;347189;28;873;-80
2021/11/16 01:01:36;;;;;;;;;;;;;;;;;;347204;28;983;-80
2021/11/16 01:01:47;;;;;;;;;;;;;;;;;;347179;28;1047;-80
2021/11/16 01:02:14;;;;;;;;;;;;;;;;;;347213;28;790;-81
2021/11/16 01:02:44;;;;;;;;;;;;;;;;;;347285;28;605;-80
2021/11/16 01:02:55;;;;;;;;;;;;;;;;;;347243;28;857;-83
2021/11/16 01:03:06;;;;;;;;;;;;;;;;;;347203;28;862;-83
2021/11/16 01:03:17;;;;;;;;;;;;;;;;;;346786;28;1012;-83
2021/11/16 01:03:28;;;;;;;;;;;;;;;;;;345633;28;1230;-82
2021/11/16 01:03:38;;;;;;;;;;;;;;;;;;345837;28;779;-83
2021/11/16 01:03:49;;;;;;;;;;;;;;;;;;345818;28;775;-82
2021/11/16 01:04:00;;;;;;;;;;;;;;;;;;345741;28;1051;-82
2021/11/16 01:04:27;;;;;;;;;;;;;;;;;;345799;28;887;-85
2021/11/16 01:04:39;;;;;;;;;;;;;;;;;;345652;28;1213;-86
2021/11/16 01:04:51;;;;;;;;;;;;;;;;;;345776;28;949;-82
2021/11/16 01:05:02;;;;;;;;;;;;;;;;;;345737;28;985;-85
2021/11/16 01:05:12;;;;;;;;;;;;;;;;;;345714;28;999;-81
2021/11/16 01:05:23;;;;;;;;;;;;;;;;;;344965;28;941;-82
2021/11/16 01:05:34;;;;;;;;;;;;;;;;;;345611;28;925;-85
2021/11/16 01:05:44;;;;;;;;;;;;;;;;;;344318;28;1578;-82
2021/11/16 01:05:55;;;;;;;;;;;;;;;;;;343062;28;988;-83
2021/11/16 01:06:05;;;;;;;;;;;;;;;;;;343104;28;819;-82
2021/11/16 01:06:15;;;;;;;;;;;;;;;;;;343108;28;774;-85
2021/11/16 01:06:26;;;;;;;;;;;;;;;;;;343070;28;826;-84
2021/11/16 01:06:37;;;;;;;;;;;;;;;;;;343070;28;910;-86
2021/11/16 01:06:47;;;;;;;;;;;;;;;;;;343065;28;1910;-85
2021/11/16 01:06:58;;;;;;;;;;;;;;;;;;343115;28;775;-85
2021/11/16 01:07:08;;;;;;;;;;;;;;;;;;343049;28;1036;-84
2021/11/16 01:07:19;;;;;;;;;;;;;;;;;;343088;28;973;-86
2021/11/16 01:07:32;;;;;;;;;;;;;;;;;;343074;28;862;-85
2021/11/16 01:07:43;;;;;;;;;;;;;;;;;;344055;28;957;-86
2021/11/16 01:07:54;;;;;;;;;;;;;;;;;;345559;28;929;-84
2021/11/16 01:08:05;;;;;;;;;;;;;;;;;;345781;28;1001;-82
2021/11/16 01:08:15;;;;;;;;;;;;;;;;;;345697;28;1004;-81
2021/11/16 01:08:26;;;;;;;;;;;;;;;;;;345805;28;826;-85
2021/11/16 01:08:36;;;;;;;;;;;;;;;;;;345797;28;842;-81
2021/11/16 01:08:46;;;;;;;;;;;;;;;;;;345717;28;858;-81
2021/11/16 01:08:58;;;;;;;;;;;;;;;;;;345782;28;979;-80
2021/11/16 01:09:08;;;;;;;;;;;;;;;;;;345741;28;1025;-83
2021/11/16 01:09:18;;;;;;;;;;;;;;;;;;346984;28;961;-82
2021/11/16 01:09:29;;;;;;;;;;;;;;;;;;347211;28;834;-83
2021/11/16 01:09:39;;;;;;;;;;;;;;;;;;347205;28;965;-84
2021/11/16 01:09:50;;;;;;;;;;;;;;;;;;347182;28;871;-83
2021/11/16 01:10:00;;;;;;;;;;;;;;;;;;347162;28;802;-83
2021/11/16 01:10:12;;;;;;;;;;;;;;;;;;347215;28;831;-84
2021/11/16 01:10:50;;;;;;;;;;;;;;;;;;345770;28;838;-80
2021/11/16 01:11:09;;;;;;;;;;;;;;;;;;345852;28;806;-85
2021/11/16 01:11:20;;;;;;;;;;;;;;;;;;345702;28;929;-83
2021/11/16 01:11:30;;;;;;;;;;;;;;;;;;345796;28;981;-88
2021/11/16 01:11:41;;;;;;;;;;;;;;;;;;345525;28;1778;-83
2021/11/16 01:12:11;;;;;;;;;;;;;;;;;;345699;28;601;-82
2021/11/16 01:12:22;;;;;;;;;;;;;;;;;;346851;28;909;-83
2021/11/16 01:12:33;;;;;;;;;;;;;;;;;;347272;28;850;-84
2021/11/16 01:12:44;;;;;;;;;;;;;;;;;;347131;28;1350;-86
2021/11/16 01:12:54;;;;;;;;;;;;;;;;;;345814;28;1036;-84
2021/11/16 01:13:05;;;;;;;;;;;;;;;;;;345763;28;944;-83
2021/11/16 01:13:16;;;;;;;;;;;;;;;;;;345825;28;893;-83
2021/11/16 01:13:27;;;;;;;;;;;;;;;;;;345741;28;1008;-81
2021/11/16 01:13:40;;;;;;;;;;;;;;;;;;345710;28;831;-86
2021/11/16 01:13:50;;;;;;;;;;;;;;;;;;345775;28;846;-84
2021/11/16 01:14:04;;;;;;;;;;;;;;;;;;345762;28;1063;-83
2021/11/16 01:14:15;;;;;;;;;;;;;;;;;;345751;28;936;-87
2021/11/16 01:14:25;;;;;;;;;;;;;;;;;;345785;28;834;-87
2021/11/16 01:14:36;;;;;;;;;;;;;;;;;;345751;28;988;-86
2021/11/16 01:14:46;;;;;;;;;;;;;;;;;;345921;28;838;-87
2021/11/16 01:14:57;;;;;;;;;;;;;;;;;;347242;28;818;-86
2021/11/16 01:15:09;;;;;;;;;;;;;;;;;;347225;28;976;-85
2021/11/16 01:15:20;;;;;;;;;;;;;;;;;;345765;28;889;-86
2021/11/16 01:15:50;;;;;;;;;;;;;;;;;;345755;28;921;-87
2021/11/16 01:16:01;;;;;;;;;;;;;;;;;;341730;29;985;-83
2021/11/16 01:16:12;;;;;;;;;;;;;;;;;;341710;29;779;-85
2021/11/16 01:16:40;;;;;;;;;;;;;;;;;;341672;29;973;-86
2021/11/16 01:16:51;;;;;;;;;;;;;;;;;;341690;29;1033;-86
2021/11/16 01:17:01;;;;;;;;;;;;;;;;;;341766;29;792;-86
2021/11/16 01:17:12;;;;;;;;;;;;;;;;;;341669;29;1076;-84
2021/11/16 01:17:22;;;;;;;;;;;;;;;;;;341660;29;925;-89
2021/11/16 01:17:33;;;;;;;;;;;;;;;;;;341673;29;846;-85
2021/11/16 01:17:44;;;;;;;;;;;;;;;;;;341760;29;977;-86
2021/11/16 01:17:54;;;;;;;;;;;;;;;;;;341692;29;1029;-87
2021/11/16 01:18:05;;;;;;;;;;;;;;;;;;341726;29;946;-86
2021/11/16 01:18:15;;;;;;;;;;;;;;;;;;341684;29;835;-83
2021/11/16 01:18:44;;;;;;;;;;;;;;;;;;341730;29;987;-85
2021/11/16 01:18:56;;;;;;;;;;;;;;;;;;341626;29;1044;-84
2021/11/16 01:19:07;;;;;;;;;;;;;;;;;;341751;29;994;-83
2021/11/16 01:19:17;;;;;;;;;;;;;;;;;;341725;29;839;-86
2021/11/16 01:19:27;;;;;;;;;;;;;;;;;;341713;29;870;-85
2021/11/16 01:19:38;;;;;;;;;;;;;;;;;;341715;29;1205;-88
2021/11/16 01:19:48;;;;;;;;;;;;;;;;;;340443;29;823;-85
2021/11/16 01:19:59;;;;;;;;;;;;;;;;;;339079;29;939;-87
2021/11/16 01:20:10;;;;;;;;;;;;;;;;;;339076;29;998;-88
2021/11/16 01:20:22;;;;;;;;;;;;;;;;;;339147;29;827;-82
2021/11/16 01:20:32;;;;;;;;;;;;;;;;;;338967;29;1600;-85
2021/11/16 01:20:43;;;;;;;;;;;;;;;;;;338944;29;874;-82
2021/11/16 01:21:15;;;;;;;;;;;;;;;;;;339076;29;800;-86
2021/11/16 01:21:26;;;;;;;;;;;;;;;;;;339125;29;1001;-84
2021/11/16 01:22:02;;;;;;;;;;;;;;;;;;339010;29;1140;-87
2021/11/16 01:22:14;;;;;;;;;;;;;;;;;;339102;29;922;-89
2021/11/16 01:22:25;;;;;;;;;;;;;;;;;;339153;29;966;-82
2021/11/16 01:23:02;;;;;;;;;;;;;;;;;;340393;29;886;-85
2021/11/16 01:23:39;;;;;;;;;;;;;;;;;;341753;29;962;-86
2021/11/16 01:23:49;;;;;;;;;;;;;;;;;;341747;29;926;-89
2021/11/16 01:24:01;;;;;;;;;;;;;;;;;;341757;29;996;-84
2021/11/16 01:24:11;;;;;;;;;;;;;;;;;;341756;29;874;-83
2021/11/16 01:24:22;;;;;;;;;;;;;;;;;;341708;29;764;-85
2021/11/16 01:24:32;;;;;;;;;;;;;;;;;;341673;29;894;-83
2021/11/16 01:25:52;;;;;;;;;;;;;;;;;;341618;29;1004;-85
2021/11/16 01:26:03;;;;;;;;;;;;;;;;;;341695;29;925;-88
2021/11/16 01:26:13;;;;;;;;;;;;;;;;;;340400;29;1060;-87
2021/11/16 01:26:24;;;;;;;;;;;;;;;;;;340438;29;950;-83
2021/11/16 01:26:36;;;;;;;;;;;;;;;;;;338919;29;1435;-87
2021/11/16 01:26:47;;;;;;;;;;;;;;;;;;339013;29;2023;-85
2021/11/16 01:26:57;;;;;;;;;;;;;;;;;;339031;29;986;-85
2021/11/16 01:27:10;;;;;;;;;;;;;;;;;;339211;29;847;-87
2021/11/16 01:27:21;;;;;;;;;;;;;;;;;;339154;29;894;-84
2021/11/16 01:28:01;;;;;;;;;;;;;;;;;;337814;29;966;-87
2021/11/16 01:28:13;;;;;;;;;;;;;;;;;;337823;29;870;-87
2021/11/16 01:28:28;;;;;;;;;;;;;;;;;;338877;29;851;-87
2021/11/16 01:28:39;;;;;;;;;;;;;;;;;;340340;29;1207;-86
2021/11/16 01:28:49;;;;;;;;;;;;;;;;;;340445;29;827;-83
2021/11/16 01:29:01;;;;;;;;;;;;;;;;;;340250;29;1155;-85
2021/11/16 01:29:12;;;;;;;;;;;;;;;;;;340407;29;966;-83
2021/11/16 01:29:24;;;;;;;;;;;;;;;;;;340362;29;1000;-82
2021/11/16 01:29:37;;;;;;;;;;;;;;;;;;340463;29;881;-84
2021/11/16 01:29:50;;;;;;;;;;;;;;;;;;340418;29;882;-88
2021/11/16 01:30:01;;;;;;;;;;;;;;;;;;340323;29;834;-87
2021/11/16 01:30:13;;;;;;;;;;;;;;;;;;340386;29;1021;-86
2021/11/16 01:30:26;;;;;;;;;;;;;;;;;;337635;29;1325;-85
2021/11/16 01:31:07;;;;;;;;;;;;;;;;;;337738;29;1018;-83
2021/11/16 01:31:17;;;;;;;;;;;;;;;;;;337810;29;843;-86
2021/11/16 01:31:28;;;;;;;;;;;;;;;;;;336540;29;812;-83
2021/11/16 01:31:38;;;;;;;;;;;;;;;;;;336481;29;520;-86
2021/11/16 01:31:51;;;;;;;;;;;;;;;;;;337772;29;958;-84
2021/11/16 01:32:02;;;;;;;;;;;;;;;;;;337725;29;1045;-85
2021/11/16 01:32:48;;;;;;;;;;;;;;;;;;340376;29;808;-86
2021/11/16 01:33:30;;;;;;;;;;;;;;;;;;339996;29;1204;-87
2021/11/16 01:34:10;;;;;;;;;;;;;;;;;;339062;29;871;-81
2021/11/16 01:34:46;;;;;;;;;;;;;;;;;;339076;29;816;-83
2021/11/16 01:34:54;;;;;;;;;;;;;;;;;;338870;29;1996;-83
2021/11/16 01:35:06;;;;;;;;;;;;;;;;;;339081;29;1005;-85
2021/11/16 01:35:16;;;;;;;;;;;;;;;;;;340403;29;981;-87
2021/11/16 01:35:26;;;;;;;;;;;;;;;;;;341401;29;910;-87
2021/11/16 01:35:53;;;;;;;;;;;;;;;;;;341751;29;909;-83
2021/11/16 01:36:03;;;;;;;;;;;;;;;;;;341662;29;898;-88
2021/11/16 01:36:14;;;;;;;;;;;;;;;;;;341686;29;562;-87
2021/11/16 01:36:40;;;;;;;;;;;;;;;;;;341785;29;882;-82
2021/11/16 01:36:51;;;;;;;;;;;;;;;;;;340377;29;870;-85
2021/11/16 01:37:01;;;;;;;;;;;;;;;;;;340384;29;914;-85
2021/11/16 01:37:14;;;;;;;;;;;;;;;;;;340392;29;851;-81
2021/11/16 01:37:24;;;;;;;;;;;;;;;;;;340356;29;804;-85
2021/11/16 01:37:36;;;;;;;;;;;;;;;;;;340410;29;803;-81
2021/11/16 01:37:46;;;;;;;;;;;;;;;;;;339059;29;792;-83
2021/11/16 01:37:57;;;;;;;;;;;;;;;;;;339122;29;934;-81
2021/11/16 01:38:09;;;;;;;;;;;;;;;;;;339058;29;915;-81
2021/11/16 01:38:22;;;;;;;;;;;;;;;;;;339093;29;989;-80
2021/11/16 01:38:32;;;;;;;;;;;;;;;;;;339055;29;977;-84
2021/11/16 01:39:09;;;;;;;;;;;;;;;;;;340355;29;961;-84
2021/11/16 01:39:37;;;;;;;;;;;;;;;;;;340383;29;922;-85
2021/11/16 01:39:49;;;;;;;;;;;;;;;;;;341659;29;823;-84
2021/11/16 01:39:59;;;;;;;;;;;;;;;;;;341712;29;1001;-85
2021/11/16 01:40:14;;;;;;;;;;;;;;;;;;341730;29;937;-84
2021/11/16 01:40:25;;;;;;;;;;;;;;;;;;341644;29;1070;-81